createdAt,value
2022-08-03T00:00:33.158Z,20.00
2022-08-03T00:03:01.035Z,19.90
2022-08-03T00:05:28.904Z,19.80
2022-08-03T00:07:56.728Z,19.70
2022-08-03T00:10:26.547Z,19.60
2022-08-03T00:12:54.568Z,19.60
2022-08-03T00:15:22.431Z,19.60
2022-08-03T00:17:53.080Z,19.60
2022-08-03T00:20:22.405Z,19.60
2022-08-03T00:22:50.266Z,19.50
2022-08-03T00:25:18.511Z,19.60
2022-08-03T00:27:48.292Z,19.50
2022-08-03T00:30:16.979Z,19.50
2022-08-03T00:32:45.615Z,19.50
2022-08-03T00:35:32.484Z,19.60
2022-08-03T00:38:01.670Z,19.60
2022-08-03T00:40:29.922Z,19.60
2022-08-03T00:43:00.804Z,19.60
2022-08-03T00:45:30.055Z,19.50
2022-08-03T00:47:58.953Z,19.40
2022-08-03T00:50:28.939Z,19.40
2022-08-03T00:52:58.893Z,19.30
2022-08-03T00:55:27.700Z,19.30
2022-08-03T00:57:56.098Z,19.20
2022-08-03T01:00:28.020Z,19.10
2022-08-03T01:02:55.999Z,19.20
2022-08-03T01:05:24.105Z,19.30
2022-08-03T01:08:09.142Z,19.30
2022-08-03T01:10:48.450Z,19.30
2022-08-03T01:14:01.661Z,19.20
2022-08-03T01:16:20.020Z,19.20
2022-08-03T01:18:55.887Z,19.20
2022-08-03T01:21:29.865Z,19.30
2022-08-03T01:24:06.429Z,19.20
2022-08-03T01:27:01.059Z,19.10
2022-08-03T01:29:54.211Z,19.00
2022-08-03T01:33:00.190Z,19.00
2022-08-03T01:35:16.443Z,18.90
2022-08-03T01:37:53.547Z,18.80
2022-08-03T01:40:23.097Z,18.80
2022-08-03T01:42:52.638Z,18.90
2022-08-03T01:45:23.231Z,18.90
2022-08-03T01:47:52.562Z,18.90
2022-08-03T01:50:24.663Z,18.80
2022-08-03T01:52:54.045Z,18.80
2022-08-03T01:55:24.448Z,18.80
2022-08-03T01:58:05.892Z,18.80
2022-08-03T02:00:38.263Z,18.90
2022-08-03T02:03:08.115Z,18.80
2022-08-03T02:05:37.283Z,18.80
2022-08-03T02:08:07.739Z,18.90
2022-08-03T02:10:38.653Z,18.90
2022-08-03T02:13:09.759Z,18.80
2022-08-03T02:15:40.261Z,18.70
2022-08-03T02:18:10.808Z,18.60
2022-08-03T02:20:41.447Z,18.70
2022-08-03T02:23:10.022Z,18.70
2022-08-03T02:25:45.630Z,18.60
2022-08-03T02:28:18.293Z,18.60
2022-08-03T02:30:54.652Z,18.50
2022-08-03T02:33:26.295Z,18.60
2022-08-03T02:35:55.193Z,18.60
2022-08-03T02:38:27.177Z,18.70
2022-08-03T02:40:58.444Z,18.60
2022-08-03T02:43:27.936Z,18.60
2022-08-03T02:46:10.679Z,18.60
2022-08-03T02:48:39.835Z,18.60
2022-08-03T02:51:08.160Z,18.70
2022-08-03T02:53:37.025Z,18.70
2022-08-03T02:56:06.437Z,18.60
2022-08-03T02:58:34.906Z,18.60
2022-08-03T03:01:04.351Z,18.50
2022-08-03T03:03:37.249Z,18.40
2022-08-03T03:06:14.433Z,18.30
2022-08-03T03:08:43.389Z,18.30
2022-08-03T03:11:12.443Z,18.30
2022-08-03T03:13:42.328Z,18.30
2022-08-03T03:16:10.980Z,18.40
2022-08-03T03:18:41.282Z,18.40
2022-08-03T03:21:10.600Z,18.40
2022-08-03T03:23:39.780Z,18.40
2022-08-03T03:26:08.389Z,18.40
2022-08-03T03:28:37.999Z,18.40
2022-08-03T03:31:07.068Z,18.30
2022-08-03T03:33:35.515Z,18.20
2022-08-03T03:36:06.399Z,18.10
2022-08-03T03:38:34.618Z,18.20
2022-08-03T03:41:02.931Z,18.20
2022-08-03T03:43:31.055Z,18.20
2022-08-03T03:45:59.684Z,18.10
2022-08-03T03:48:28.058Z,18.00
2022-08-03T03:50:57.248Z,18.00
2022-08-03T03:53:26.744Z,17.80
2022-08-03T03:55:57.883Z,17.70
2022-08-03T03:58:30.556Z,17.70
2022-08-03T04:00:58.586Z,17.70
2022-08-03T04:03:26.468Z,17.80
2022-08-03T04:06:11.843Z,17.90
2022-08-03T04:08:59.099Z,17.80
2022-08-03T04:11:31.906Z,17.80
2022-08-03T04:14:04.237Z,17.80
2022-08-03T04:16:36.063Z,17.80
2022-08-03T04:19:08.886Z,17.80
2022-08-03T04:21:41.542Z,17.80
2022-08-03T04:24:13.757Z,17.90
2022-08-03T04:26:44.154Z,18.00
2022-08-03T04:29:13.932Z,18.20
2022-08-03T04:31:44.294Z,18.20
2022-08-03T04:34:12.337Z,18.10
2022-08-03T04:36:50.185Z,18.00
2022-08-03T04:39:25.258Z,18.00
2022-08-03T04:42:07.644Z,18.20
2022-08-03T04:44:45.285Z,18.30
2022-08-03T04:47:13.120Z,18.20
2022-08-03T04:49:41.553Z,18.10
2022-08-03T04:52:10.902Z,18.10
2022-08-03T04:54:50.252Z,18.10
2022-08-03T04:57:23.119Z,18.10
2022-08-03T04:59:58.167Z,18.20
2022-08-03T05:02:30.512Z,18.20
2022-08-03T05:04:58.836Z,18.20
2022-08-03T05:07:35.547Z,18.30
2022-08-03T05:10:14.833Z,18.30
2022-08-03T05:12:44.923Z,18.40
2022-08-03T05:15:13.032Z,18.60
2022-08-03T05:17:41.094Z,18.60
2022-08-03T05:20:10.243Z,18.50
2022-08-03T05:22:38.087Z,18.50
2022-08-03T05:25:08.061Z,18.40
2022-08-03T05:27:36.109Z,18.40
2022-08-03T05:30:31.431Z,18.50
2022-08-03T05:32:53.366Z,18.50
2022-08-03T05:36:01.895Z,18.50
2022-08-03T05:38:09.219Z,18.50
2022-08-03T05:40:38.733Z,18.50
2022-08-03T05:43:14.663Z,18.60
2022-08-03T05:45:42.574Z,18.70
2022-08-03T05:48:10.410Z,18.70
2022-08-03T05:50:42.711Z,18.80
2022-08-03T05:53:10.806Z,18.90
2022-08-03T05:55:40.018Z,19.10
2022-08-03T05:58:07.832Z,19.10
2022-08-03T06:00:35.820Z,19.20
2022-08-03T06:03:03.667Z,19.40
2022-08-03T06:05:31.715Z,19.40
2022-08-03T06:07:59.621Z,19.60
2022-08-03T06:10:37.095Z,19.60
2022-08-03T06:13:07.405Z,19.70
2022-08-03T06:15:35.446Z,19.70
2022-08-03T06:18:03.272Z,19.80
2022-08-03T06:20:31.248Z,19.90
2022-08-03T06:23:01.253Z,19.90
2022-08-03T06:25:29.411Z,20.00
2022-08-03T06:27:57.442Z,20.10
2022-08-03T06:30:26.918Z,20.20
2022-08-03T06:32:54.882Z,20.30
2022-08-03T06:35:22.872Z,20.30
2022-08-03T06:37:52.873Z,20.50
2022-08-03T06:40:29.017Z,20.50
2022-08-03T06:42:56.949Z,20.60
2022-08-03T06:45:26.487Z,20.70
2022-08-03T06:48:04.241Z,20.80
2022-08-03T06:50:32.424Z,20.90
2022-08-03T06:53:00.390Z,21.10
2022-08-03T06:55:28.768Z,21.20
2022-08-03T06:57:59.858Z,21.30
2022-08-03T07:00:32.807Z,21.40
2022-08-03T07:03:00.644Z,21.50
2022-08-03T07:05:28.826Z,21.60
2022-08-03T07:07:59.112Z,21.80
2022-08-03T07:10:27.649Z,21.90
2022-08-03T07:12:56.497Z,22.10
2022-08-03T07:15:54.095Z,22.20
2022-08-03T07:18:14.100Z,22.40
2022-08-03T07:20:42.208Z,22.60
2022-08-03T07:23:10.477Z,22.70
2022-08-03T07:25:47.167Z,22.90
2022-08-03T07:28:15.208Z,23.00
2022-08-03T07:30:43.043Z,23.20
2022-08-03T07:33:10.910Z,23.40
2022-08-03T07:35:40.151Z,23.40
2022-08-03T07:38:08.028Z,23.50
2022-08-03T07:40:35.844Z,23.60
2022-08-03T07:43:03.841Z,23.80
2022-08-03T07:45:33.543Z,24.00
2022-08-03T07:48:01.470Z,24.10
2022-08-03T07:50:29.392Z,24.20
2022-08-03T07:52:59.723Z,24.40
2022-08-03T07:55:28.703Z,24.50
2022-08-03T07:58:04.882Z,24.70
2022-08-03T08:00:33.350Z,24.90
2022-08-03T08:03:01.341Z,25.10
2022-08-03T08:05:29.717Z,25.30
2022-08-03T08:07:58.991Z,25.70
2022-08-03T08:10:26.985Z,26.10
2022-08-03T08:12:54.925Z,26.60
2022-08-03T08:15:22.853Z,27.20
2022-08-03T08:17:53.499Z,27.80
2022-08-03T08:20:27.923Z,28.40
2022-08-03T08:23:01.397Z,28.90
2022-08-03T08:25:30.200Z,29.30
2022-08-03T08:28:30.081Z,29.80
2022-08-03T08:30:46.636Z,29.90
2022-08-03T08:33:23.418Z,30.00
2022-08-03T08:35:52.980Z,30.40
2022-08-03T08:38:22.529Z,30.90
2022-08-03T08:40:50.623Z,30.80
2022-08-03T08:43:18.605Z,31.20
2022-08-03T08:45:47.831Z,31.50
2022-08-03T08:48:16.643Z,31.70
2022-08-03T08:50:45.060Z,31.80
2022-08-03T08:53:17.537Z,32.20
2022-08-03T08:55:59.694Z,32.70
2022-08-03T08:58:31.304Z,32.80
2022-08-03T09:00:59.428Z,32.80
2022-08-03T09:03:29.977Z,33.10
2022-08-03T09:05:59.857Z,33.10
2022-08-03T09:08:27.753Z,33.40
2022-08-03T09:10:56.972Z,33.40
2022-08-03T09:13:24.847Z,33.30
2022-08-03T09:16:10.870Z,33.50
2022-08-03T09:18:38.950Z,33.70
2022-08-03T09:21:34.860Z,34.00
2022-08-03T09:24:07.071Z,34.10
2022-08-03T09:26:39.925Z,34.20
2022-08-03T09:29:14.441Z,34.10
2022-08-03T09:31:45.333Z,34.30
2022-08-03T09:34:15.968Z,34.50
2022-08-03T09:36:46.365Z,34.60
2022-08-03T09:39:16.226Z,34.90
2022-08-03T09:41:46.705Z,35.10
2022-08-03T09:44:25.448Z,35.00
2022-08-03T09:46:56.024Z,35.20
2022-08-03T09:49:24.562Z,35.50
2022-08-03T09:52:31.606Z,35.40
2022-08-03T09:54:41.522Z,35.50
2022-08-03T09:57:22.906Z,35.70
2022-08-03T09:59:53.921Z,35.60
2022-08-03T10:02:31.050Z,35.70
2022-08-03T10:04:58.885Z,35.80
2022-08-03T10:07:27.341Z,36.10
2022-08-03T10:09:56.723Z,35.80
2022-08-03T10:12:27.063Z,35.30
2022-08-03T10:14:55.722Z,35.40
2022-08-03T10:17:24.563Z,35.60
2022-08-03T10:19:52.466Z,35.80
2022-08-03T10:22:24.384Z,36.10
2022-08-03T10:24:56.754Z,36.00
2022-08-03T10:27:27.839Z,36.20
2022-08-03T10:29:57.523Z,36.40
2022-08-03T10:32:30.130Z,36.10
2022-08-03T10:35:19.700Z,35.70
2022-08-03T10:37:57.272Z,35.80
2022-08-03T10:43:21.473Z,36.00
2022-08-03T10:45:50.054Z,36.10
2022-08-03T10:48:19.275Z,36.20
2022-08-03T10:50:47.660Z,36.50
2022-08-03T10:53:18.654Z,36.90
2022-08-03T10:56:05.505Z,37.00
2022-08-03T10:58:57.985Z,36.90
2022-08-03T11:01:59.503Z,36.70
2022-08-03T11:04:30.686Z,36.90
2022-08-03T11:07:21.310Z,37.20
2022-08-03T11:09:51.272Z,37.00
2022-08-03T11:12:30.160Z,36.60
2022-08-03T11:15:02.967Z,36.70
2022-08-03T11:17:31.439Z,36.60
2022-08-03T11:19:59.365Z,36.90
2022-08-03T11:22:50.976Z,37.20
2022-08-03T11:25:54.345Z,37.10
2022-08-03T11:28:29.221Z,37.10
2022-08-03T11:31:49.796Z,37.00
2022-08-03T11:34:18.888Z,37.10
2022-08-03T11:37:28.565Z,36.80
2022-08-03T11:39:57.934Z,36.60
2022-08-03T11:42:40.117Z,36.70
2022-08-03T11:45:10.383Z,36.50
2022-08-03T11:47:50.214Z,36.30
2022-08-03T11:50:21.165Z,36.30
2022-08-03T11:52:50.563Z,36.30
2022-08-03T11:55:21.821Z,36.20
2022-08-03T11:59:10.668Z,36.00
2022-08-03T12:00:38.149Z,36.20
2022-08-03T12:03:09.876Z,36.10
2022-08-03T12:05:51.638Z,36.20
2022-08-03T12:08:32.053Z,36.20
2022-08-03T12:11:01.528Z,36.00
2022-08-03T12:14:33.127Z,35.80
2022-08-03T12:16:28.599Z,35.40
2022-08-03T12:19:01.127Z,35.30
2022-08-03T12:21:29.822Z,35.30
2022-08-03T12:24:00.118Z,35.20
2022-08-03T12:26:29.424Z,35.30
2022-08-03T12:28:57.442Z,35.10
2022-08-03T12:31:25.733Z,35.10
2022-08-03T12:33:59.506Z,35.10
2022-08-03T12:36:28.757Z,34.90
2022-08-03T12:38:57.995Z,34.90
2022-08-03T12:41:31.550Z,34.90
2022-08-03T12:43:59.724Z,34.70
2022-08-03T12:46:32.641Z,34.50
2022-08-03T12:49:07.756Z,34.20
2022-08-03T12:51:37.354Z,34.20
2022-08-03T12:54:06.164Z,34.30
2022-08-03T12:56:34.085Z,34.30
2022-08-03T12:59:02.016Z,34.30
2022-08-03T13:01:38.236Z,34.20
2022-08-03T13:04:33.236Z,34.30
2022-08-03T13:07:03.426Z,34.20
2022-08-03T13:09:41.513Z,34.20
2022-08-03T13:12:11.276Z,34.20
2022-08-03T13:14:39.169Z,34.10
2022-08-03T13:17:07.869Z,34.00
2022-08-03T13:19:38.393Z,34.00
2022-08-03T13:22:13.021Z,34.00
2022-08-03T13:24:41.434Z,33.80
2022-08-03T13:28:04.864Z,33.80
2022-08-03T13:29:58.409Z,33.80
2022-08-03T13:32:26.333Z,33.70
2022-08-03T13:34:55.491Z,33.70
2022-08-03T13:37:23.633Z,33.70
2022-08-03T13:39:59.558Z,33.70
2022-08-03T13:42:30.047Z,33.60
2022-08-03T13:44:58.094Z,33.50
2022-08-03T13:47:26.252Z,33.40
2022-08-03T13:50:01.032Z,33.40
2022-08-03T13:52:31.224Z,33.40
2022-08-03T13:54:59.817Z,33.50
2022-08-03T13:58:03.677Z,33.50
2022-08-03T14:00:27.921Z,33.50
2022-08-03T14:03:09.180Z,33.40
2022-08-03T14:05:41.923Z,33.50
2022-08-03T14:08:10.342Z,33.50
2022-08-03T14:10:40.219Z,33.40
2022-08-03T14:13:08.552Z,33.30
2022-08-03T14:15:37.845Z,33.20
2022-08-03T14:18:06.616Z,33.30
2022-08-03T14:20:38.481Z,33.20
2022-08-03T14:23:18.214Z,33.20
2022-08-03T14:25:51.897Z,33.20
2022-08-03T14:28:23.475Z,33.20
2022-08-03T14:30:52.080Z,33.20
2022-08-03T14:33:20.234Z,33.10
2022-08-03T14:35:48.364Z,33.10
2022-08-03T14:38:18.328Z,33.10
2022-08-03T14:40:46.291Z,33.10
2022-08-03T14:43:14.379Z,33.10
2022-08-03T14:45:42.672Z,33.10
2022-08-03T14:50:34.600Z,33.10
2022-08-03T14:51:00.879Z,33.10
2022-08-03T14:53:30.125Z,33.10
2022-08-03T14:55:59.249Z,33.10
2022-08-03T14:58:27.600Z,33.10
2022-08-03T15:00:56.725Z,33.10
2022-08-03T15:03:25.636Z,33.20
2022-08-03T15:05:54.881Z,33.10
2022-08-03T15:08:23.444Z,33.10
2022-08-03T15:10:52.854Z,33.10
2022-08-03T15:13:21.427Z,33.10
2022-08-03T15:15:51.638Z,33.10
2022-08-03T15:18:20.095Z,33.10
2022-08-03T15:20:49.445Z,33.00
2022-08-03T15:23:18.147Z,33.00
2022-08-03T15:26:06.446Z,32.90
2022-08-03T15:28:37.513Z,32.90
2022-08-03T15:31:05.832Z,32.80
2022-08-03T15:33:33.672Z,32.70
2022-08-03T15:36:03.554Z,32.70
2022-08-03T15:38:31.469Z,32.70
2022-08-03T15:40:59.429Z,32.80
2022-08-03T15:43:27.272Z,32.80
2022-08-03T15:46:27.765Z,32.70
2022-08-03T15:48:44.284Z,32.70
2022-08-03T15:51:12.409Z,32.70
2022-08-03T15:53:40.289Z,32.70
2022-08-03T15:56:13.240Z,32.70
2022-08-03T15:59:09.487Z,32.70
2022-08-03T16:01:34.555Z,32.70
2022-08-03T16:04:02.534Z,32.70
2022-08-03T16:06:35.956Z,32.60
2022-08-03T16:09:23.471Z,32.60
2022-08-03T16:11:54.586Z,32.60
2022-08-03T16:14:34.224Z,32.60
2022-08-03T16:17:07.276Z,32.50
2022-08-03T16:19:35.609Z,32.50
2022-08-03T16:22:03.597Z,32.50
2022-08-03T16:24:31.970Z,32.50
2022-08-03T16:27:00.727Z,32.50
2022-08-03T16:29:29.310Z,32.40
2022-08-03T16:31:57.187Z,32.50
2022-08-03T16:34:26.552Z,32.40
2022-08-03T16:36:54.610Z,32.40
2022-08-03T16:39:22.537Z,32.40
2022-08-03T16:41:53.635Z,32.40
2022-08-03T16:44:29.624Z,32.40
2022-08-03T16:46:57.472Z,32.30
2022-08-03T16:49:54.323Z,32.30
2022-08-03T16:52:16.820Z,32.40
2022-08-03T16:54:52.646Z,32.30
2022-08-03T16:57:29.956Z,32.30
2022-08-03T17:00:11.700Z,32.20
2022-08-03T17:02:48.024Z,32.20
2022-08-03T17:05:17.677Z,32.20
2022-08-03T17:07:50.633Z,32.20
2022-08-03T17:10:27.042Z,32.20
2022-08-03T17:12:55.490Z,32.10
2022-08-03T17:15:38.284Z,32.10
2022-08-03T17:18:17.668Z,32.00
2022-08-03T17:20:50.773Z,32.00
2022-08-03T17:23:35.831Z,31.90
2022-08-03T17:26:09.759Z,31.90
2022-08-03T17:28:50.197Z,31.80
2022-08-03T17:31:31.509Z,31.80
2022-08-03T17:34:04.485Z,31.70
2022-08-03T17:37:02.592Z,31.70
2022-08-03T17:39:48.481Z,31.60
2022-08-03T17:42:30.769Z,31.50
2022-08-03T17:45:02.491Z,31.40
2022-08-03T17:47:42.838Z,31.40
2022-08-03T17:50:23.566Z,31.30
2022-08-03T17:53:07.429Z,31.20
2022-08-03T17:55:57.227Z,31.10
2022-08-03T17:58:41.305Z,30.90
2022-08-03T18:02:00.400Z,30.80
2022-08-03T18:04:30.426Z,30.70
2022-08-03T18:07:00.383Z,30.60
2022-08-03T18:10:03.731Z,30.50
2022-08-03T18:12:41.582Z,30.40
2022-08-03T18:15:21.947Z,30.30
2022-08-03T18:17:55.521Z,30.20
2022-08-03T18:20:40.880Z,30.10
2022-08-03T18:23:10.959Z,30.00
2022-08-03T18:25:58.165Z,29.90
2022-08-03T18:28:27.558Z,29.80
2022-08-03T18:30:57.569Z,29.70
2022-08-03T18:34:16.448Z,29.60
2022-08-03T18:36:21.667Z,29.50
2022-08-03T18:38:59.358Z,29.40
2022-08-03T18:41:32.189Z,29.40
2022-08-03T18:44:08.915Z,29.40
2022-08-03T18:46:48.757Z,29.40
2022-08-03T18:49:30.246Z,29.40
2022-08-03T18:52:12.467Z,29.30
2022-08-03T18:55:01.147Z,29.40
2022-08-03T18:57:46.402Z,29.40
2022-08-03T19:00:17.006Z,29.40
2022-08-03T19:02:50.257Z,29.30
2022-08-03T19:05:21.424Z,29.30
2022-08-03T19:07:59.997Z,29.20
2022-08-03T19:10:32.382Z,29.00
2022-08-03T19:13:05.260Z,28.90
2022-08-03T19:15:50.975Z,28.90
2022-08-03T19:18:21.327Z,28.70
2022-08-03T19:20:53.244Z,28.70
2022-08-03T19:23:25.931Z,28.70
2022-08-03T19:26:00.097Z,28.50
2022-08-03T19:28:31.003Z,28.30
2022-08-03T19:31:02.547Z,28.20
2022-08-03T19:33:57.550Z,28.10
2022-08-03T19:36:26.569Z,28.00
2022-08-03T19:38:57.299Z,27.90
2022-08-03T19:41:31.218Z,28.00
2022-08-03T19:44:19.885Z,28.10
2022-08-03T19:46:53.302Z,28.00
2022-08-03T19:49:57.017Z,27.80
2022-08-03T19:52:16.180Z,27.70
2022-08-03T19:54:53.069Z,27.60
2022-08-03T19:57:25.141Z,27.40
2022-08-03T19:59:55.692Z,27.20
2022-08-03T20:02:27.025Z,27.10
2022-08-03T20:04:56.782Z,27.00
2022-08-03T20:07:26.111Z,26.90
2022-08-03T20:09:56.537Z,26.80
2022-08-03T20:12:27.457Z,26.80
2022-08-03T20:14:58.295Z,26.70
2022-08-03T20:17:55.179Z,26.60
2022-08-03T20:20:15.480Z,26.50
2022-08-03T20:22:48.065Z,26.40
2022-08-03T20:25:21.098Z,26.40
2022-08-03T20:28:06.840Z,26.40
2022-08-03T20:30:43.310Z,26.40
2022-08-03T20:33:11.303Z,26.30
2022-08-03T20:35:41.965Z,26.30
2022-08-03T20:38:13.708Z,26.30
2022-08-03T20:40:41.677Z,26.20
2022-08-03T20:43:09.589Z,26.10
2022-08-03T20:45:59.368Z,26.00
2022-08-03T20:48:28.368Z,26.00
2022-08-03T20:50:56.935Z,25.80
2022-08-03T20:53:57.243Z,25.70
2022-08-03T20:56:15.023Z,25.60
2022-08-03T20:58:50.670Z,25.40
2022-08-03T21:04:11.990Z,25.20
2022-08-03T21:06:53.096Z,25.10
2022-08-03T21:09:25.144Z,25.00
2022-08-03T21:12:15.324Z,24.90
2022-08-03T21:13:13.458Z,25.30
2022-08-03T21:14:53.304Z,24.90
2022-08-03T21:17:38.428Z,24.90
2022-08-03T21:20:11.846Z,24.80
2022-08-03T21:22:43.416Z,24.70
2022-08-03T21:25:14.304Z,24.60
2022-08-03T21:27:42.736Z,24.60
2022-08-03T21:30:12.895Z,24.40
2022-08-03T21:32:45.528Z,24.30
2022-08-03T21:35:16.154Z,24.30
2022-08-03T21:37:45.444Z,24.30
2022-08-03T21:40:16.534Z,24.30
2022-08-03T21:42:45.918Z,24.30
2022-08-03T21:45:17.562Z,24.30
2022-08-03T21:47:48.475Z,24.30
2022-08-03T21:50:18.683Z,24.20
2022-08-03T21:52:50.546Z,24.30
2022-08-03T21:55:20.509Z,24.20
2022-08-03T21:57:54.000Z,24.30
2022-08-03T22:00:23.969Z,24.30
2022-08-03T22:02:55.585Z,24.30
2022-08-03T22:05:42.599Z,24.20
2022-08-03T22:08:13.815Z,24.10
2022-08-03T22:10:44.144Z,24.00
2022-08-03T22:13:13.518Z,24.00
2022-08-03T22:15:41.740Z,23.90
2022-08-03T22:18:09.768Z,23.90
2022-08-03T22:20:39.084Z,24.00
2022-08-03T22:23:08.628Z,23.90
2022-08-03T22:25:40.191Z,23.90
2022-08-03T22:28:10.135Z,23.80
2022-08-03T22:30:38.759Z,23.70
2022-08-03T22:33:11.616Z,23.60
2022-08-03T22:35:44.462Z,23.60
2022-08-03T22:38:16.547Z,23.50
2022-08-03T22:40:44.825Z,23.50
2022-08-03T22:43:12.889Z,23.40
2022-08-03T22:46:06.845Z,23.40
2022-08-03T22:48:35.353Z,23.30
2022-08-03T22:51:10.141Z,23.20
2022-08-03T22:53:39.162Z,23.10
2022-08-03T22:56:07.909Z,23.20
2022-08-03T22:58:35.849Z,23.30
2022-08-03T23:01:06.726Z,23.30
2022-08-03T23:03:59.216Z,23.30
2022-08-03T23:06:27.978Z,23.40
2022-08-03T23:08:56.171Z,23.30
2022-08-03T23:11:26.501Z,23.30
2022-08-03T23:13:57.535Z,23.20
2022-08-03T23:16:28.644Z,23.10
2022-08-03T23:18:58.874Z,23.10
2022-08-03T23:22:00.766Z,23.00
2022-08-03T23:24:29.530Z,23.00
2022-08-03T23:26:58.732Z,23.00
2022-08-03T23:29:29.463Z,22.90
2022-08-03T23:31:58.373Z,22.90
2022-08-03T23:34:44.749Z,23.10
2022-08-03T23:37:15.932Z,23.00
2022-08-03T23:39:46.837Z,22.90
2022-08-03T23:42:17.783Z,22.90
2022-08-03T23:44:46.485Z,22.90
2022-08-03T23:47:15.005Z,22.80
2022-08-03T23:49:43.036Z,22.70
2022-08-03T23:52:16.464Z,22.70
2022-08-03T23:54:54.137Z,22.70
2022-08-03T23:57:33.603Z,22.70
